Greifswald — 3FEC8 — position and weather

sailwx.info

Track history (hours):
 
Tides and Currents Weather Stations Pressure Air Temp Water Temp Dewpoint Dewpoint Depression Visibility Wind Speed Wind Dir Waves Ship Positions

Greifswald

Last reported at 2015-Aug-04 06:31 UTC. Time now 2015-Aug-04 09:46 UTC.
Position N 44°50' E 030°23'.

Length 191 m; draft 6.2 m.

Type: Ship. MMSI: 370492000.

Date/timePositionNaut miles runAvg speedWind from/ knotsBaromVisibWave heightAir tempDewpointWater temp
2015-Aug-04 06:31N 44°50' E 030°23'1212.1
2015-Aug-04 05:34N 45°01' E 030°28'1312.3
2015-Aug-04 04:33N 45°13' E 030°32'1212.0
2015-Aug-04 03:33N 45°25' E 030°36'1212.0
2015-Aug-04 02:33N 45°36' E 030°41'1511.9
2015-Aug-04 01:20N 45°51' E 030°46'911.4
2015-Aug-04 00:32N 45°60' E 030°48'11 0.5
2015-Aug-03 02:33N 46°10' E 030°46'  
2015-Jul-31 04:34N 44°37' E 030°18'2115.1
2015-Jul-31 03:11N 44°57' E 030°26'1415.0
2015-Jul-31 02:14N 45°11' E 030°30'1015.0
2015-Jul-31 01:34N 45°21' E 030°33'1514.7
2015-Jul-31 00:33N 45°35' E 030°39'1514.8
2015-Jul-30 23:34N 45°49' E 030°45'1414.2
2015-Jul-30 22:34N 46°03' E 030°47'1414.3
2015-Jul-30 21:34N 46°17' E 030°44'5 4.5
2015-Jul-30 20:28N 46°21' E 030°39'0 0.0
2015-Jul-30 19:31N 46°21' E 030°39'0 0.0
2015-Jul-30 01:28N 46°21' E 030°39'0 0.0
2015-Jul-29 23:22N 46°21' E 030°39'0 0.0
2015-Jul-29 21:28N 46°21' E 030°39'96 3.7
2015-Jul-28 19:15N 45°14' E 032°18'811.5
2015-Jul-28 18:33N 45°08' E 032°26'1111.3
2015-Jul-28 17:33N 44°60' E 032°36'1211.4
2015-Jul-28 16:33N 44°51' E 032°47'1211.7
2015-Jul-28 15:33N 44°42' E 032°58'58 9.3
2015-Jul-28 09:18N 44°05' E 033°60'7 9.9
2015-Jul-28 08:33N 44°02' E 034°09'1010.2
2015-Jul-28 07:33N 43°58' E 034°22'1010.1
2015-Jul-28 06:33N 43°54' E 034°35'9 9.3
2015-Jul-28 05:33N 43°50' E 034°47'6 6.3
2015-Jul-28 04:32N 43°47' E 034°55'5 5.6
2015-Jul-28 03:33N 43°45' E 035°02'38 5.3
2015-Jul-27 20:19N 43°31' E 035°51'5 5.2
2015-Jul-27 19:26N 43°29' E 035°57'5 5.1
2015-Jul-27 18:32N 43°27' E 036°02'18 5.6
2015-Jul-27 15:20N 43°20' E 036°25'4 4.9
2015-Jul-27 14:33N 43°18' E 036°30'7 7.3
2015-Jul-27 13:33N 43°15' E 036°39'1110.6
2015-Jul-27 12:33N 43°11' E 036°53'  
Track history (hours):
 
Tides and Currents Weather Stations Pressure Air Temp Water Temp Dewpoint Dewpoint Depression Visibility Wind Speed Wind Dir Waves Ship Positions

Greifswald

Last reported at 2015-Aug-04 06:31 UTC. Time now 2015-Aug-04 09:46 UTC.
Position N 44°50' E 030°23'.

Length 191 m; draft 6.2 m.

Type: Ship. MMSI: 370492000.

Date/timePositionNaut miles runAvg speedWind from/ knotsBaromVisibWave heightAir tempDewpointWater temp
2015-Aug-04 06:31N 44°50' E 030°23'1212.1
2015-Aug-04 05:34N 45°01' E 030°28'1312.3
2015-Aug-04 04:33N 45°13' E 030°32'1212.0
2015-Aug-04 03:33N 45°25' E 030°36'1212.0
2015-Aug-04 02:33N 45°36' E 030°41'1511.9
2015-Aug-04 01:20N 45°51' E 030°46'911.4
2015-Aug-04 00:32N 45°60' E 030°48'11 0.5
2015-Aug-03 02:33N 46°10' E 030°46'  
2015-Jul-31 04:34N 44°37' E 030°18'2115.1
2015-Jul-31 03:11N 44°57' E 030°26'1415.0
2015-Jul-31 02:14N 45°11' E 030°30'1015.0
2015-Jul-31 01:34N 45°21' E 030°33'1514.7
2015-Jul-31 00:33N 45°35' E 030°39'1514.8
2015-Jul-30 23:34N 45°49' E 030°45'1414.2
2015-Jul-30 22:34N 46°03' E 030°47'1414.3
2015-Jul-30 21:34N 46°17' E 030°44'5 4.5
2015-Jul-30 20:28N 46°21' E 030°39'0 0.0
2015-Jul-30 19:31N 46°21' E 030°39'0 0.0
2015-Jul-30 01:28N 46°21' E 030°39'0 0.0
2015-Jul-29 23:22N 46°21' E 030°39'0 0.0
2015-Jul-29 21:28N 46°21' E 030°39'96 3.7
2015-Jul-28 19:15N 45°14' E 032°18'811.5
2015-Jul-28 18:33N 45°08' E 032°26'1111.3
2015-Jul-28 17:33N 44°60' E 032°36'1211.4
2015-Jul-28 16:33N 44°51' E 032°47'1211.7
2015-Jul-28 15:33N 44°42' E 032°58'58 9.3
2015-Jul-28 09:18N 44°05' E 033°60'7 9.9
2015-Jul-28 08:33N 44°02' E 034°09'1010.2
2015-Jul-28 07:33N 43°58' E 034°22'1010.1
2015-Jul-28 06:33N 43°54' E 034°35'9 9.3
2015-Jul-28 05:33N 43°50' E 034°47'6 6.3
2015-Jul-28 04:32N 43°47' E 034°55'5 5.6
2015-Jul-28 03:33N 43°45' E 035°02'38 5.3
2015-Jul-27 20:19N 43°31' E 035°51'5 5.2
2015-Jul-27 19:26N 43°29' E 035°57'5 5.1
2015-Jul-27 18:32N 43°27' E 036°02'18 5.6
2015-Jul-27 15:20N 43°20' E 036°25'4 4.9
2015-Jul-27 14:33N 43°18' E 036°30'7 7.3
2015-Jul-27 13:33N 43°15' E 036°39'1110.6
2015-Jul-27 12:33N 43°11' E 036°53'  

Dump ship's entire track history